Time;durP1;ratioP1;P1;durP2;ratioP2;P2;SDS_P1;SDS_P2;PMS_P1;PMS_P2;Temp;Humidity;BMP_temperature;BMP_pressure;BME280_temperature;BME280_humidity;BME280_pressure;Samples;Min_cycle;Max_cycle;Signal;HPM_P1;HPM_P2
2024/02/22 00:02:05;;;;;;;100.97;68.00;;;9.70;92.60;;;;;;4907898;29;20031;-75
2024/02/22 00:04:31;;;;;;;98.10;65.93;;;9.70;94.20;;;;;;4904456;29;20107;-75
2024/02/22 00:06:57;;;;;;;95.57;66.20;;;9.60;95.90;;;;;;4906840;29;20035;-75
2024/02/22 00:09:23;;;;;;;95.63;69.68;;;9.60;95.80;;;;;;4904860;29;20024;-75
2024/02/22 00:11:48;;;;;;;90.80;64.68;;;9.60;98.50;;;;;;4906251;29;20039;-75
2024/02/22 00:14:14;;;;;;;93.95;66.10;;;9.60;98.80;;;;;;4907201;29;20026;-75
2024/02/22 00:16:40;;;;;;;98.43;67.53;;;9.60;99.30;;;;;;4906017;29;20100;-75
2024/02/22 00:19:06;;;;;;;96.30;67.97;;;9.60;99.90;;;;;;4905428;29;20036;-75
2024/02/22 00:21:35;;;;;;;94.50;65.82;;;9.60;99.90;;;;;;4907932;29;21121;-75
2024/02/22 00:24:01;;;;;;;92.82;66.60;;;9.60;99.90;;;;;;4896652;29;20084;-75
2024/02/22 00:26:26;;;;;;;101.30;68.68;;;9.70;99.90;;;;;;4908740;29;20036;-75
2024/02/22 00:28:52;;;;;;;96.03;68.78;;;9.70;99.50;;;;;;4905203;29;20033;-75
2024/02/22 00:31:18;;;;;;;93.90;66.88;;;9.70;99.90;;;;;;4908708;29;20438;-75
2024/02/22 00:33:45;;;;;;;99.88;67.78;;;9.60;99.60;;;;;;4905594;29;20033;-75
2024/02/22 00:36:11;;;;;;;99.53;69.65;;;9.70;99.90;;;;;;4898442;29;20036;-75
2024/02/22 00:38:37;;;;;;;97.78;67.90;;;9.70;99.90;;;;;;4905027;29;20032;-75
2024/02/22 00:41:03;;;;;;;94.22;69.18;;;9.70;99.90;;;;;;4906681;29;20084;-75
2024/02/22 00:43:32;;;;;;;97.05;66.18;;;9.70;99.90;;;;;;4915473;29;20091;-75
2024/02/22 00:45:57;;;;;;;92.68;63.65;;;9.70;99.70;;;;;;4896505;29;20068;-75
2024/02/22 00:48:23;;;;;;;88.72;64.50;;;9.70;99.90;;;;;;4907705;29;20032;-75
2024/02/22 00:50:49;;;;;;;97.05;66.95;;;9.70;99.50;;;;;;4895973;29;20387;-75
2024/02/22 00:53:16;;;;;;;93.95;65.50;;;9.80;98.90;;;;;;4908292;29;20028;-75
2024/02/22 00:55:41;;;;;;;91.95;64.78;;;9.80;99.40;;;;;;4904940;29;20032;-75
2024/02/22 00:58:07;;;;;;;96.88;66.40;;;9.80;98.50;;;;;;4908177;29;20067;-75
2024/02/22 01:00:33;;;;;;;99.68;64.70;;;9.80;98.60;;;;;;4903821;29;20063;-75
2024/02/22 01:02:58;;;;;;;94.28;66.07;;;9.80;99.90;;;;;;4917880;29;20368;-75
2024/02/22 01:05:24;;;;;;;94.10;64.18;;;9.80;99.90;;;;;;4896699;29;20394;-75
2024/02/22 01:07:50;;;;;;;92.43;64.60;;;9.80;99.90;;;;;;4906917;29;20492;-75
2024/02/22 01:10:16;;;;;;;88.53;63.80;;;9.80;99.90;;;;;;4897429;29;20052;-75
2024/02/22 01:12:41;;;;;;;88.07;62.25;;;9.80;99.60;;;;;;4906443;29;20024;-75
2024/02/22 01:15:07;;;;;;;88.82;62.92;;;9.80;98.50;;;;;;4896234;29;20389;-75
2024/02/22 01:17:33;;;;;;;87.72;62.58;;;9.80;98.10;;;;;;4910429;29;20044;-75
2024/02/22 01:19:59;;;;;;;85.55;60.30;;;9.80;97.10;;;;;;4905445;29;20024;-75
2024/02/22 01:22:25;;;;;;;83.90;59.88;;;9.80;96.90;;;;;;4907348;29;20028;-75
2024/02/22 01:24:51;;;;;;;90.82;62.63;;;9.80;97.00;;;;;;4904625;29;20036;-75
2024/02/22 01:27:16;;;;;;;88.10;59.38;;;9.80;96.10;;;;;;4907772;29;20398;-75
2024/02/22 01:29:45;;;;;;;81.63;59.60;;;9.80;95.80;;;;;;4904291;29;20108;-75
2024/02/22 01:32:11;;;;;;;84.38;56.72;;;9.80;93.90;;;;;;4906024;29;20118;-75
2024/02/22 01:34:36;;;;;;;81.97;56.35;;;9.90;93.30;;;;;;4896555;29;20112;-75
2024/02/22 01:37:02;;;;;;;86.00;57.47;;;9.90;92.60;;;;;;4906658;29;20479;-75
2024/02/22 01:39:28;;;;;;;82.82;57.38;;;9.90;92.80;;;;;;4907612;29;20183;-75
2024/02/22 01:41:54;;;;;;;79.97;57.53;;;9.90;91.80;;;;;;4905608;29;20028;-75
2024/02/22 01:44:23;;;;;;;78.45;54.35;;;9.90;90.70;;;;;;4909203;29;20398;-75
2024/02/22 01:46:48;;;;;;;80.35;56.30;;;10.00;86.00;;;;;;4907668;29;20055;-75
2024/02/22 01:49:14;;;;;;;79.60;54.60;;;10.00;87.00;;;;;;4904721;29;20467;-75
2024/02/22 01:51:40;;;;;;;76.55;52.28;;;9.90;85.10;;;;;;4907376;29;20446;-75
2024/02/22 01:54:06;;;;;;;72.57;51.15;;;10.00;87.40;;;;;;4904112;29;20061;-75
2024/02/22 01:56:31;;;;;;;74.70;54.35;;;10.00;88.60;;;;;;4904073;29;20036;-75
2024/02/22 01:58:58;;;;;;;79.20;52.95;;;10.00;87.60;;;;;;4906926;29;20482;-75
2024/02/22 02:01:24;;;;;;;78.47;52.58;;;10.00;85.40;;;;;;4904745;29;20471;-75
2024/02/22 02:03:50;;;;;;;71.10;51.33;;;10.00;84.20;;;;;;4906566;29;20124;-75
2024/02/22 02:06:17;;;;;;;80.60;53.40;;;10.00;86.40;;;;;;4905299;29;20032;-75
2024/02/22 02:08:43;;;;;;;79.47;52.40;;;10.00;81.60;;;;;;4896110;29;20035;-75
2024/02/22 02:11:09;;;;;;;74.38;50.65;;;10.00;82.30;;;;;;4905702;29;20029;-75
2024/02/22 02:13:34;;;;;;;73.03;50.45;;;10.00;80.60;;;;;;4906451;29;20123;-75
2024/02/22 02:16:00;;;;;;;70.47;50.30;;;10.00;83.30;;;;;;4907428;29;20024;-76
2024/02/22 02:18:27;;;;;;;71.72;50.45;;;9.90;83.60;;;;;;4906528;29;20475;-75
2024/02/22 02:21:10;;;;;;;70.85;49.65;;;10.00;82.50;;;;;;4906917;29;20387;-75
2024/02/22 02:24:06;;;;;;;75.65;51.90;;;10.00;81.20;;;;;;4904555;29;20044;-75
2024/02/22 02:26:35;;;;;;;71.95;49.80;;;10.00;83.80;;;;;;4889264;29;20032;-75
2024/02/22 02:29:01;;;;;;;72.80;49.45;;;10.00;82.80;;;;;;4903799;29;20025;-75
2024/02/22 02:31:28;;;;;;;72.22;49.60;;;10.00;80.40;;;;;;4907191;29;20028;-75
2024/02/22 02:33:54;;;;;;;73.60;50.50;;;10.00;78.40;;;;;;4903957;29;20061;-75
2024/02/22 02:36:20;;;;;;;71.95;49.28;;;9.90;73.50;;;;;;4906644;29;20066;-75
2024/02/22 02:38:45;;;;;;;72.93;48.58;;;10.00;72.10;;;;;;4904299;29;20112;-75
2024/02/22 02:41:11;;;;;;;71.55;49.03;;;9.90;71.90;;;;;;4906178;29;20397;-75
2024/02/22 02:43:36;;;;;;;69.40;47.70;;;9.90;75.80;;;;;;4903448;29;20036;-75
2024/02/22 02:46:02;;;;;;;68.53;47.42;;;9.90;74.50;;;;;;4909792;29;20039;-75
2024/02/22 02:48:28;;;;;;;70.10;48.00;;;9.90;75.40;;;;;;4908585;29;20386;-75
2024/02/22 02:50:54;;;;;;;64.20;44.67;;;10.00;71.90;;;;;;4905625;29;20111;-75
2024/02/22 02:53:22;;;;;;;75.00;47.03;;;10.00;69.00;;;;;;4904739;29;20056;-75
2024/02/22 02:55:47;;;;;;;70.32;47.90;;;10.00;70.80;;;;;;4901077;29;20107;-75
2024/02/22 02:58:13;;;;;;;71.95;47.08;;;10.00;64.80;;;;;;4907232;29;20058;-75
2024/02/22 03:00:39;;;;;;;66.22;45.10;;;10.00;62.80;;;;;;4910217;29;20120;-75
2024/02/22 03:03:05;;;;;;;66.80;45.83;;;10.00;61.50;;;;;;4897949;29;20025;-75
2024/02/22 03:05:30;;;;;;;72.20;47.83;;;10.00;61.10;;;;;;4900524;29;20153;-75
2024/02/22 03:07:56;;;;;;;63.78;43.65;;;10.00;64.20;;;;;;4917535;29;20047;-77
2024/02/22 03:10:22;;;;;;;67.40;46.92;;;10.00;62.90;;;;;;4906248;29;20064;-77
2024/02/22 03:12:48;;;;;;;66.18;45.42;;;10.10;60.90;;;;;;4909276;29;20025;-77
2024/02/22 03:15:14;;;;;;;65.10;45.03;;;10.10;58.40;;;;;;4906263;29;20083;-77
2024/02/22 03:17:40;;;;;;;66.78;44.30;;;10.10;61.60;;;;;;4908851;29;20484;-77
2024/02/22 03:20:12;;;;;;;65.00;43.72;;;10.00;70.20;;;;;;4908158;29;20088;-77
2024/02/22 03:22:39;;;;;;;;;;;10.00;69.70;;;;;;4892964;29;20039;-77
2024/02/22 03:25:08;;;;;;;64.20;44.08;;;10.00;74.40;;;;;;4906537;29;19908;-77
2024/02/22 03:27:34;;;;;;;68.40;46.10;;;9.90;73.80;;;;;;4894731;29;20035;-77
2024/02/22 03:30:00;;;;;;;66.60;46.00;;;10.00;74.60;;;;;;4909121;29;20110;-77
2024/02/22 03:32:26;;;;;;;65.20;46.13;;;10.00;77.40;;;;;;4907482;29;20029;-77
2024/02/22 03:34:52;;;;;;;70.80;46.60;;;10.00;80.40;;;;;;4908605;29;20043;-77
2024/02/22 03:37:18;;;;;;;65.57;43.72;;;10.00;82.40;;;;;;4907881;29;20039;-77
2024/02/22 03:39:49;;;;;;;71.93;47.50;;;10.00;77.00;;;;;;4898399;29;20118;-77
2024/02/22 03:42:18;;;;;;;78.57;54.92;;;10.00;91.00;;;;;;4906143;29;20035;-77
2024/02/22 03:44:43;;;;;;;84.97;57.28;;;10.00;96.90;;;;;;4909774;29;20028;-77
2024/02/22 03:47:09;;;;;;;78.03;54.33;;;9.90;99.90;;;;;;4896141;29;20347;-77
2024/02/22 03:49:35;;;;;;;84.30;58.05;;;9.90;99.90;;;;;;4906277;29;20553;-77
2024/02/22 03:52:01;;;;;;;84.97;56.15;;;9.90;99.90;;;;;;4908952;29;20300;-77
2024/02/22 03:54:27;;;;;;;75.95;54.05;;;9.90;99.90;;;;;;4907020;29;20024;-77
2024/02/22 03:56:53;;;;;;;79.75;53.60;;;9.80;99.90;;;;;;4898456;29;20032;-77
2024/02/22 03:59:18;;;;;;;76.60;54.33;;;9.90;99.90;;;;;;4898357;29;20120;-77
2024/02/22 04:01:44;;;;;;;79.10;53.25;;;9.90;99.90;;;;;;4897991;29;20542;-77
2024/02/22 04:04:11;;;;;;;77.95;54.78;;;9.90;99.90;;;;;;4907689;29;20032;-77
2024/02/22 04:06:37;;;;;;;83.18;57.17;;;9.80;99.90;;;;;;4897162;29;20400;-77
2024/02/22 04:09:03;;;;;;;78.32;52.22;;;9.80;99.90;;;;;;4908444;29;20028;-77
2024/02/22 04:11:29;;;;;;;77.68;53.05;;;9.80;99.90;;;;;;4896762;29;20039;-77
2024/02/22 04:13:54;;;;;;;75.03;49.05;;;9.70;99.90;;;;;;4905644;29;20483;-77
2024/02/22 04:16:20;;;;;;;74.13;50.42;;;9.60;99.90;;;;;;4905167;29;20040;-77
2024/02/22 04:18:45;;;;;;;69.57;45.95;;;9.60;99.90;;;;;;4909111;29;20041;-77
2024/02/22 04:21:11;;;;;;;71.63;47.83;;;9.60;99.90;;;;;;4908669;29;20031;-77
2024/02/22 04:23:37;;;;;;;74.28;45.33;;;9.50;99.90;;;;;;4908988;29;20375;-77
2024/02/22 04:26:03;;;;;;;75.45;46.13;;;9.50;99.90;;;;;;4906260;29;20128;-77
2024/02/22 04:28:28;;;;;;;77.45;46.17;;;9.60;99.40;;;;;;4907670;29;20103;-77
2024/02/22 04:30:54;;;;;;;75.35;44.42;;;9.60;98.20;;;;;;4906563;29;20021;-77
2024/02/22 04:33:20;;;;;;;66.00;45.38;;;9.60;98.20;;;;;;4909046;29;20039;-77
2024/02/22 04:35:46;;;;;;;73.47;47.45;;;9.60;98.90;;;;;;4906735;29;20028;-77
2024/02/22 04:38:12;;;;;;;67.32;44.88;;;9.60;99.90;;;;;;4907469;29;20101;-77
2024/02/22 04:40:38;;;;;;;66.10;43.47;;;9.60;98.20;;;;;;4913378;29;20427;-77
2024/02/22 04:43:04;;;;;;;68.45;45.42;;;9.60;95.20;;;;;;4892724;29;20391;-77
2024/02/22 04:45:30;;;;;;;71.68;46.58;;;9.50;95.70;;;;;;4907021;29;20056;-77
2024/02/22 04:48:01;;;;;;;74.97;46.60;;;9.50;94.10;;;;;;4908360;29;20032;-77
2024/02/22 04:50:27;;;;;;;65.65;44.50;;;9.60;90.20;;;;;;4905621;29;20024;-77
2024/02/22 04:52:53;;;;;;;69.38;44.78;;;9.60;90.90;;;;;;4907487;29;20031;-77
2024/02/22 04:55:19;;;;;;;68.85;44.67;;;9.60;87.30;;;;;;4906131;29;20375;-77
2024/02/22 04:57:46;;;;;;;71.38;44.80;;;9.60;87.50;;;;;;4906720;29;20379;-78
2024/02/22 05:00:13;;;;;;;67.25;45.80;;;9.60;87.60;;;;;;4914557;29;20442;-78
2024/02/22 05:02:38;;;;;;;67.20;43.85;;;9.60;83.50;;;;;;4907153;29;20055;-77
2024/02/22 05:05:06;;;;;;;69.50;45.72;;;9.60;83.80;;;;;;4905654;29;20486;-77
2024/02/22 05:07:33;;;;;;;69.13;46.38;;;9.70;86.30;;;;;;4904499;29;20017;-77
2024/02/22 05:09:59;;;;;;;68.68;45.03;;;9.70;84.10;;;;;;4908691;29;20394;-77
2024/02/22 05:12:28;;;;;;;70.07;46.08;;;9.70;80.80;;;;;;4907776;29;20031;-77
2024/02/22 05:14:54;;;;;;;70.60;46.88;;;9.70;77.60;;;;;;4904740;29;20025;-77
2024/02/22 05:17:21;;;;;;;70.78;45.45;;;9.70;77.70;;;;;;4908521;29;20052;-77
2024/02/22 05:19:47;;;;;;;69.50;44.65;;;9.70;78.50;;;;;;4897331;29;20115;-77
2024/02/22 05:22:13;;;;;;;70.40;47.17;;;9.60;83.60;;;;;;4905955;29;20368;-77
2024/02/22 05:24:42;;;;;;;73.07;45.78;;;9.50;92.50;;;;;;4904203;29;20047;-77
2024/02/22 05:27:11;;;;;;;69.50;46.20;;;9.50;93.10;;;;;;4904099;29;20040;-77
2024/02/22 05:29:37;;;;;;;67.88;44.45;;;9.50;92.70;;;;;;4907729;29;20452;-77
2024/02/22 05:32:04;;;;;;;68.47;44.78;;;9.50;90.50;;;;;;4904270;29;20029;-77
2024/02/22 05:34:31;;;;;;;66.93;44.58;;;9.40;91.60;;;;;;4906880;29;20499;-77
2024/02/22 05:36:57;;;;;;;73.50;46.90;;;9.40;91.90;;;;;;4905196;29;20040;-77
2024/02/22 05:39:23;;;;;;;70.85;48.17;;;9.40;92.10;;;;;;4906338;29;20076;-77
2024/02/22 05:41:51;;;;;;;74.93;46.90;;;9.40;89.60;;;;;;4905534;29;20037;-77
2024/02/22 05:44:17;;;;;;;80.60;50.15;;;9.40;85.90;;;;;;4906178;29;20028;-77
2024/02/22 05:46:43;;;;;;;71.03;47.22;;;9.40;81.20;;;;;;4906534;29;20501;-78
2024/02/22 05:49:09;;;;;;;74.80;47.40;;;9.40;87.50;;;;;;4903952;29;20099;-77
2024/02/22 05:51:34;;;;;;;73.05;47.10;;;9.40;87.20;;;;;;4895210;29;20116;-77
2024/02/22 05:54:00;;;;;;;77.30;50.10;;;9.40;87.60;;;;;;4906345;29;20038;-77
2024/02/22 05:56:26;;;;;;;69.70;47.60;;;9.50;80.80;;;;;;4903859;29;20033;-77
2024/02/22 05:58:51;;;;;;;77.40;48.80;;;9.50;79.20;;;;;;4907617;29;20032;-77
2024/02/22 06:01:17;;;;;;;78.95;53.20;;;9.50;80.70;;;;;;4905240;29;20036;-77
2024/02/22 06:03:43;;;;;;;90.15;60.88;;;9.50;81.60;;;;;;4896722;29;20033;-77
2024/02/22 06:06:09;;;;;;;88.18;56.95;;;9.60;79.70;;;;;;4911806;29;20047;-77
2024/02/22 06:08:34;;;;;;;86.35;54.60;;;9.60;81.60;;;;;;4909410;29;20025;-77
2024/02/22 06:11:01;;;;;;;76.20;50.58;;;9.60;86.70;;;;;;4907640;29;20028;-77
2024/02/22 06:13:26;;;;;;;77.45;50.58;;;9.60;90.20;;;;;;4894750;29;20382;-77
2024/02/22 06:15:52;;;;;;;77.45;52.53;;;9.70;86.70;;;;;;4894519;29;20467;-77
2024/02/22 06:18:18;;;;;;;84.97;53.47;;;9.60;92.10;;;;;;4909968;29;20470;-77
2024/02/22 06:20:44;;;;;;;82.35;55.17;;;9.60;94.50;;;;;;4889599;29;20032;-77
2024/02/22 06:23:09;;;;;;;81.38;50.85;;;9.60;95.70;;;;;;4906842;29;20021;-77
2024/02/22 06:25:35;;;;;;;72.68;51.20;;;9.60;95.40;;;;;;4911472;29;20067;-77
2024/02/22 06:28:02;;;;;;;77.95;51.60;;;9.60;95.70;;;;;;4889884;29;20045;-77
2024/02/22 06:30:28;;;;;;;81.97;52.72;;;9.60;96.90;;;;;;4893468;29;20476;-77
2024/02/22 06:32:54;;;;;;;84.60;56.60;;;9.60;99.40;;;;;;4896136;29;20024;-77
2024/02/22 06:35:22;;;;;;;76.57;53.13;;;9.60;99.30;;;;;;4907909;29;20368;-77
2024/02/22 06:37:49;;;;;;;76.00;53.67;;;9.60;99.90;;;;;;4914888;29;20021;-77
2024/02/22 06:40:15;;;;;;;83.97;57.05;;;9.60;99.90;;;;;;4919833;29;20036;-77
2024/02/22 06:42:41;;;;;;;77.55;52.33;;;9.60;99.90;;;;;;4919745;29;20021;-77
2024/02/22 06:45:10;;;;;;;76.72;52.75;;;9.60;98.10;;;;;;4897533;29;20107;-77
2024/02/22 06:47:36;;;;;;;78.78;53.13;;;9.60;99.90;;;;;;4898124;29;20032;-77
2024/02/22 06:50:03;;;;;;;80.15;53.03;;;9.60;99.90;;;;;;4910629;29;20024;-77
2024/02/22 06:52:29;;;;;;;86.03;53.00;;;9.70;96.40;;;;;;4897328;29;20024;-77
2024/02/22 06:54:55;;;;;;;80.82;51.85;;;9.70;98.90;;;;;;4913223;29;20199;-77
2024/02/22 06:57:22;;;;;;;88.80;54.78;;;9.70;97.90;;;;;;4909719;29;20023;-77
2024/02/22 06:59:48;;;;;;;86.60;55.83;;;9.70;96.70;;;;;;4889991;29;20032;-77
2024/02/22 07:02:15;;;;;;;85.05;55.42;;;9.70;97.50;;;;;;4897791;29;20028;-77
2024/02/22 07:04:42;;;;;;;83.57;58.78;;;9.70;99.50;;;;;;4907074;29;20028;-77
2024/02/22 07:07:08;;;;;;;86.50;56.15;;;9.70;99.90;;;;;;4905905;29;20110;-77
2024/02/22 07:09:35;;;;;;;81.43;55.95;;;9.70;99.90;;;;;;4907310;29;20115;-77
2024/02/22 07:12:01;;;;;;;85.97;57.88;;;9.70;99.90;;;;;;4905352;29;20055;-77
2024/02/22 07:14:27;;;;;;;89.68;56.80;;;9.70;99.90;;;;;;4909645;29;20029;-77
2024/02/22 07:16:52;;;;;;;89.25;57.65;;;9.70;99.90;;;;;;4910002;29;20064;-77
2024/02/22 07:19:18;;;;;;;88.18;56.92;;;9.70;99.90;;;;;;4898773;29;20040;-77
2024/02/22 07:21:44;;;;;;;82.57;55.92;;;9.70;99.90;;;;;;4909673;29;20056;-77
2024/02/22 07:24:11;;;;;;;81.25;51.35;;;9.70;99.90;;;;;;4907110;29;20083;-78
2024/02/22 07:26:38;;;;;;;83.85;53.70;;;9.70;96.00;;;;;;4898938;29;20032;-77
2024/02/22 07:29:04;;;;;;;81.95;52.75;;;9.70;94.60;;;;;;4907842;29;20503;-77
2024/02/22 07:31:30;;;;;;;86.25;55.53;;;9.70;95.90;;;;;;4908083;29;20031;-77
2024/02/22 07:33:56;;;;;;;86.40;54.83;;;9.70;95.50;;;;;;4908443;29;20387;-77
2024/02/22 07:36:21;;;;;;;85.00;54.20;;;9.80;95.70;;;;;;4897761;29;20384;-77
2024/02/22 07:38:47;;;;;;;78.57;52.78;;;9.80;95.30;;;;;;4908808;29;20042;-77
2024/02/22 07:41:15;;;;;;;82.20;53.25;;;9.90;92.70;;;;;;4906322;29;20546;-78
2024/02/22 07:43:44;;;;;;;87.07;54.67;;;9.90;95.30;;;;;;4909591;29;20020;-77
2024/02/22 07:46:11;;;;;;;78.57;54.50;;;9.90;92.60;;;;;;4892705;29;20025;-77
2024/02/22 07:48:39;;;;;;;90.80;59.15;;;9.90;92.70;;;;;;4909758;29;20025;-77
2024/02/22 07:51:08;;;;;;;87.00;56.22;;;9.90;99.90;;;;;;4898540;29;20375;-77
2024/02/22 07:53:35;;;;;;;101.90;61.47;;;9.80;99.90;;;;;;4908127;29;20036;-77
2024/02/22 07:56:02;;;;;;;93.85;58.55;;;9.80;99.90;;;;;;4907025;29;20107;-77
2024/02/22 07:58:31;;;;;;;99.55;62.75;;;9.80;99.90;;;;;;4888359;29;20088;-77
2024/02/22 08:00:58;;;;;;;104.97;65.20;;;9.80;99.90;;;;;;4905787;29;20108;-78
2024/02/22 08:03:25;;;;;;;101.22;65.90;;;9.90;99.90;;;;;;4899348;29;20035;-77
2024/02/22 08:05:52;;;;;;;102.85;66.85;;;9.90;99.90;;;;;;4906578;29;20116;-77
2024/02/22 08:08:19;;;;;;;107.32;70.03;;;9.80;99.90;;;;;;4907996;29;20431;-77
2024/02/22 08:10:45;;;;;;;105.00;70.43;;;9.70;99.90;;;;;;4907389;29;20077;-77
2024/02/22 08:13:11;;;;;;;115.85;70.45;;;9.80;99.90;;;;;;4907140;29;20036;-77
2024/02/22 08:15:36;;;;;;;109.13;71.68;;;9.80;99.90;;;;;;4907771;29;20035;-77
2024/02/22 08:18:05;;;;;;;103.35;70.30;;;9.80;99.90;;;;;;4908832;29;20139;-77
2024/02/22 08:20:31;;;;;;;109.78;71.75;;;9.80;99.90;;;;;;4905893;29;20033;-77
2024/02/22 08:22:57;;;;;;;117.75;70.25;;;9.80;99.90;;;;;;4909019;29;20028;-77
2024/02/22 08:25:23;;;;;;;110.03;71.65;;;9.80;99.90;;;;;;4905390;29;20383;-77
2024/02/22 08:27:51;;;;;;;103.07;71.45;;;9.80;99.90;;;;;;4908466;29;20028;-77
2024/02/22 08:30:16;;;;;;;107.82;70.68;;;9.80;99.90;;;;;;4906052;29;20111;-77
2024/02/22 08:32:42;;;;;;;108.80;70.55;;;9.80;99.90;;;;;;4907615;29;20119;-77
2024/02/22 08:35:08;;;;;;;102.05;68.07;;;9.90;99.90;;;;;;4906700;29;20029;-77
2024/02/22 08:37:34;;;;;;;105.88;71.85;;;9.90;99.90;;;;;;4899203;29;20036;-77
2024/02/22 08:39:59;;;;;;;103.63;71.18;;;9.90;99.90;;;;;;4906745;29;20024;-77
2024/02/22 08:42:25;;;;;;;105.18;71.22;;;9.90;99.90;;;;;;4907366;29;20056;-77
2024/02/22 08:44:51;;;;;;;106.93;74.38;;;9.90;99.90;;;;;;4908672;29;20036;-77
2024/02/22 08:47:16;;;;;;;101.72;68.05;;;9.90;99.90;;;;;;4906190;29;20092;-77
2024/02/22 08:49:45;;;;;;;110.53;75.20;;;9.90;99.90;;;;;;4908492;29;20076;-77
2024/02/22 08:52:11;;;;;;;105.80;68.90;;;10.00;99.90;;;;;;4915406;29;20114;-77
2024/02/22 08:54:38;;;;;;;119.68;77.28;;;10.00;99.90;;;;;;4905111;29;20036;-77
2024/02/22 08:57:04;;;;;;;112.80;75.47;;;10.00;99.90;;;;;;4915096;29;20032;-77
2024/02/22 08:59:31;;;;;;;103.75;66.65;;;10.00;99.90;;;;;;4907243;29;20497;-77
2024/02/22 09:01:57;;;;;;;98.90;62.40;;;10.00;99.90;;;;;;4908284;29;20537;-77
2024/02/22 09:04:26;;;;;;;100.68;62.33;;;10.00;99.90;;;;;;4906428;29;20029;-77
2024/02/22 09:06:53;;;;;;;95.78;62.60;;;10.10;99.90;;;;;;4895992;29;20040;-77
2024/02/22 09:09:18;;;;;;;98.03;65.95;;;10.10;99.90;;;;;;4907460;29;20028;-77
2024/02/22 09:11:48;;;;;;;100.88;66.18;;;10.10;99.90;;;;;;4905104;29;20044;-77
2024/02/22 09:14:13;;;;;;;94.82;58.60;;;10.20;99.90;;;;;;4907915;29;20107;-77
2024/02/22 09:16:40;;;;;;;87.47;59.38;;;10.20;99.90;;;;;;4906380;29;20180;-77
2024/02/22 09:19:06;;;;;;;91.95;57.53;;;10.30;99.90;;;;;;4897703;29;20028;-77
2024/02/22 09:21:31;;;;;;;88.93;56.38;;;10.30;99.90;;;;;;4904116;29;20044;-77
2024/02/22 09:23:57;;;;;;;85.70;54.95;;;10.40;99.90;;;;;;4906738;29;20040;-77
2024/02/22 09:26:23;;;;;;;84.85;57.13;;;10.40;99.90;;;;;;4903660;29;20051;-78
2024/02/22 09:28:48;;;;;;;100.78;62.03;;;10.50;99.90;;;;;;4909854;29;20020;-77
2024/02/22 09:31:16;;;;;;;105.88;68.75;;;10.50;99.90;;;;;;4906017;29;20487;-77
2024/02/22 09:33:44;;;;;;;115.25;72.30;;;10.50;99.90;;;;;;4895669;29;20489;-77
2024/02/22 09:36:11;;;;;;;131.20;75.93;;;10.40;99.90;;;;;;4887036;29;20034;-77
2024/02/22 09:38:36;;;;;;;121.82;76.90;;;10.30;99.90;;;;;;4907632;29;20103;-77
2024/02/22 09:41:02;;;;;;;124.05;78.78;;;10.30;99.90;;;;;;4904135;29;20120;-77
2024/02/22 09:43:29;;;;;;;119.43;78.30;;;10.30;99.90;;;;;;4907321;29;20036;-77
2024/02/22 09:45:55;;;;;;;123.20;78.50;;;10.40;99.90;;;;;;4902390;29;20123;-77
2024/02/22 09:48:22;;;;;;;121.88;78.18;;;10.30;99.90;;;;;;4896339;29;20064;-76
2024/02/22 09:50:49;;;;;;;122.03;79.65;;;10.40;99.90;;;;;;4906148;29;20024;-76
2024/02/22 09:53:14;;;;;;;120.88;82.57;;;10.30;99.90;;;;;;4905980;29;20033;-76
2024/02/22 09:55:41;;;;;;;139.90;89.45;;;10.30;99.90;;;;;;4904018;29;20039;-76
2024/02/22 09:58:06;;;;;;;128.88;84.72;;;10.30;99.90;;;;;;4904925;29;20028;-76
2024/02/22 10:00:33;;;;;;;174.75;112.00;;;10.30;99.90;;;;;;4902870;29;20051;-76
2024/02/22 10:03:00;;;;;;;194.48;123.57;;;10.30;99.90;;;;;;4896299;29;20024;-76
2024/02/22 10:05:36;;;;;;;139.80;92.18;;;10.30;99.90;;;;;;4911412;29;20051;-76
2024/02/22 10:08:12;;;;;;;141.18;93.32;;;10.30;99.90;;;;;;4909239;29;20017;-76
2024/02/22 10:10:40;;;;;;;138.00;87.10;;;10.30;99.90;;;;;;4908274;29;20372;-76
2024/02/22 10:13:06;;;;;;;124.82;81.82;;;10.30;99.90;;;;;;4911301;29;20025;-76
2024/02/22 10:15:33;;;;;;;122.07;79.43;;;10.30;99.90;;;;;;4907626;29;20032;-76
2024/02/22 10:17:59;;;;;;;116.68;78.50;;;10.30;99.90;;;;;;4911261;29;20181;-76
2024/02/22 10:20:30;;;;;;;120.45;82.53;;;10.30;99.90;;;;;;4907279;29;20428;-76
2024/02/22 10:23:16;;;;;;;123.95;83.93;;;10.30;99.90;;;;;;4909402;29;20112;-76
2024/02/22 10:25:43;;;;;;;131.27;85.40;;;10.30;99.90;;;;;;4908592;29;20092;-76
2024/02/22 10:28:14;;;;;;;117.57;76.35;;;10.40;99.90;;;;;;4909720;29;20025;-76
2024/02/22 10:30:40;;;;;;;102.93;71.82;;;10.30;99.90;;;;;;4909772;29;20025;-76
2024/02/22 10:33:09;;;;;;;106.07;71.65;;;10.30;99.90;;;;;;4908452;29;20083;-76
2024/02/22 10:35:35;;;;;;;99.93;67.65;;;10.30;99.90;;;;;;4910583;29;20043;-76
2024/02/22 10:38:03;;;;;;;99.55;67.07;;;10.30;99.90;;;;;;4907333;29;20200;-76
2024/02/22 10:40:30;;;;;;;103.85;69.68;;;10.30;99.90;;;;;;4910340;29;20031;-76
2024/02/22 10:42:55;;;;;;;104.22;69.30;;;10.40;99.90;;;;;;4908155;29;20043;-76
2024/02/22 10:45:21;;;;;;;109.93;72.15;;;10.40;99.90;;;;;;4912232;29;20036;-76
2024/02/22 10:47:50;;;;;;;110.00;73.28;;;10.40;99.90;;;;;;4910271;29;20032;-76
2024/02/22 10:50:25;;;;;;;105.53;70.57;;;10.40;99.90;;;;;;4915988;29;20035;-76
2024/02/22 10:52:54;;;;;;;117.45;77.32;;;10.40;99.90;;;;;;4907098;29;20029;-77
2024/02/22 10:55:24;;;;;;;106.43;70.63;;;10.30;99.90;;;;;;4907708;29;20506;-77
2024/02/22 10:57:51;;;;;;;104.75;69.53;;;10.30;99.90;;;;;;4909266;29;20059;-77
2024/02/22 11:00:17;;;;;;;116.15;74.35;;;10.20;99.90;;;;;;4899988;29;20021;-77
2024/02/22 11:02:44;;;;;;;104.93;70.72;;;10.20;99.90;;;;;;4908320;29;20391;-77
2024/02/22 11:05:12;;;;;;;117.82;74.22;;;10.20;99.90;;;;;;4909480;29;20039;-77
2024/02/22 11:07:51;;;;;;;110.68;74.07;;;10.30;99.90;;;;;;4907244;29;20471;-76
2024/02/22 11:10:17;;;;;;;112.50;71.88;;;10.30;99.90;;;;;;4891216;29;20403;-76
2024/02/22 11:12:44;;;;;;;116.90;76.38;;;10.30;99.90;;;;;;4908728;29;20390;-77
2024/02/22 11:15:10;;;;;;;111.30;75.22;;;10.30;99.90;;;;;;4903681;29;20029;-77
2024/02/22 11:17:37;;;;;;;128.77;82.10;;;10.30;99.90;;;;;;4910934;29;20506;-77
2024/02/22 11:20:09;;;;;;;121.13;77.47;;;10.30;99.90;;;;;;4909535;29;20036;-77
2024/02/22 11:22:37;;;;;;;116.65;77.40;;;10.30;99.90;;;;;;4890550;29;20100;-77
2024/02/22 11:25:06;;;;;;;117.35;76.82;;;10.30;99.90;;;;;;4906351;29;20443;-77
2024/02/22 11:27:32;;;;;;;124.90;79.68;;;10.20;99.90;;;;;;4911003;29;20028;-77
2024/02/22 11:29:59;;;;;;;117.18;75.43;;;10.30;99.90;;;;;;4907875;29;20044;-77
2024/02/22 11:32:25;;;;;;;108.60;71.72;;;10.20;99.90;;;;;;4898333;29;20035;-77
2024/02/22 11:34:56;;;;;;;105.85;70.95;;;10.20;99.90;;;;;;4908911;29;20044;-77
2024/02/22 11:37:21;;;;;;;109.40;68.03;;;10.20;99.90;;;;;;4909948;29;20136;-77
2024/02/22 11:39:58;;;;;;;110.20;71.07;;;10.30;99.90;;;;;;4906227;29;20107;-77
2024/02/22 11:42:24;;;;;;;105.13;71.40;;;10.30;99.90;;;;;;4908101;29;20024;-77
2024/02/22 11:44:54;;;;;;;121.40;79.22;;;10.30;99.90;;;;;;4909679;29;20025;-76
2024/02/22 11:47:19;;;;;;;125.85;82.57;;;10.30;99.90;;;;;;4907945;29;20387;-77
2024/02/22 11:49:45;;;;;;;118.00;78.05;;;10.30;99.90;;;;;;4909090;29;20039;-77
2024/02/22 11:52:14;;;;;;;115.88;76.05;;;10.30;99.90;;;;;;4906291;29;20024;-77
2024/02/22 11:54:42;;;;;;;119.15;75.68;;;10.20;99.90;;;;;;4906312;29;20028;-77
2024/02/22 11:57:08;;;;;;;116.45;73.30;;;10.20;99.90;;;;;;4897958;29;20028;-76
2024/02/22 11:59:34;;;;;;;112.50;69.07;;;10.20;99.90;;;;;;4908436;29;20490;-77
2024/02/22 12:02:07;;;;;;;102.18;65.35;;;10.20;99.90;;;;;;4888904;29;20111;-77
2024/02/22 12:04:33;;;;;;;104.68;64.35;;;10.20;99.90;;;;;;4908348;29;20143;-77
2024/02/22 12:07:01;;;;;;;100.05;61.47;;;10.30;99.90;;;;;;4905587;29;20039;-77
2024/02/22 12:09:27;;;;;;;95.65;61.80;;;10.20;99.90;;;;;;4896787;29;20024;-77
2024/02/22 12:11:54;;;;;;;100.60;63.83;;;10.20;99.90;;;;;;4905880;29;20028;-77
2024/02/22 12:14:20;;;;;;;108.60;68.20;;;10.30;99.90;;;;;;4911778;29;20048;-77
2024/02/22 12:16:46;;;;;;;108.03;68.45;;;10.30;99.90;;;;;;4908358;29;20048;-77
2024/02/22 12:19:19;;;;;;;111.65;67.15;;;10.30;99.90;;;;;;4908214;29;20047;-77
2024/02/22 12:21:48;;;;;;;116.60;73.35;;;10.40;99.90;;;;;;4907764;29;20025;-77
2024/02/22 12:24:14;;;;;;;111.45;70.97;;;10.30;99.90;;;;;;4909343;29;20024;-77
2024/02/22 12:26:40;;;;;;;108.82;67.63;;;10.30;99.90;;;;;;4905529;29;20439;-77
2024/02/22 12:29:07;;;;;;;107.35;65.60;;;10.40;99.90;;;;;;4909059;29;20114;-77